Time;durP1;ratioP1;P1;durP2;ratioP2;P2;SDS_P1;SDS_P2;PMS_P1;PMS_P2;Temp;Humidity;BMP_temperature;BMP_pressure;BME280_temperature;BME280_humidity;BME280_pressure;Samples;Min_cycle;Max_cycle;Signal;HPM_P1;HPM_P2
2023/01/10 00:00:15;;;;;;;26.55;18.48;;;7.60;99.90;;;;;;5246839;28;20434;-65
2023/01/10 00:02:46;;;;;;;26.92;10.75;;;7.70;99.90;;;;;;5247055;28;20043;-72
2023/01/10 00:05:18;;;;;;;25.02;12.68;;;7.60;99.90;;;;;;5246768;28;20091;-72
2023/01/10 00:07:49;;;;;;;23.33;11.85;;;7.50;99.90;;;;;;5246731;28;20074;-72
2023/01/10 00:10:19;;;;;;;24.05;10.75;;;7.50;99.90;;;;;;5246486;28;20446;-72
2023/01/10 00:15:39;;;;;;;22.17;11.57;;;7.50;99.90;;;;;;5246626;28;20035;-67
2023/01/10 00:18:10;;;;;;;33.92;30.67;;;7.50;99.90;;;;;;5246489;28;20024;-72
2023/01/10 00:20:43;;;;;;;21.77;9.93;;;7.80;99.90;;;;;;5246424;28;20029;-72
2023/01/10 00:23:14;;;;;;;25.25;11.10;;;7.80;99.90;;;;;;5246387;28;20036;-67
2023/01/10 00:25:45;;;;;;;25.38;11.23;;;7.50;99.90;;;;;;5246522;28;20414;-68
2023/01/10 00:28:18;;;;;;;24.33;11.23;;;7.60;99.90;;;;;;5246452;28;20078;-73
2023/01/10 00:30:54;;;;;;;25.25;11.75;;;7.60;99.90;;;;;;5246362;28;20020;-72
2023/01/10 00:33:25;;;;;;;26.95;12.15;;;7.40;99.90;;;;;;5246339;28;20560;-66
2023/01/10 00:35:56;;;;;;;21.23;14.80;;;7.60;99.90;;;;;;5246347;28;20104;-71
2023/01/10 00:38:27;;;;;;;24.77;13.52;;;7.70;99.90;;;;;;5246000;28;20115;-73
2023/01/10 00:40:58;;;;;;;22.88;11.25;;;7.40;99.90;;;;;;5261832;28;20040;-65
2023/01/10 00:46:19;;;;;;;21.77;10.20;;;7.50;99.90;;;;;;5246287;28;20098;-73
2023/01/10 00:48:50;;;;;;;27.15;13.00;;;7.60;99.90;;;;;;5246180;28;20028;-72
2023/01/10 00:51:20;;;;;;;23.48;11.13;;;7.40;99.90;;;;;;5246326;28;20020;-66
2023/01/10 00:53:51;;;;;;;37.67;31.23;;;7.60;99.90;;;;;;5246365;28;20028;-72
2023/01/10 00:56:22;;;;;;;32.00;18.70;;;7.60;99.90;;;;;;5246151;28;20025;-72
2023/01/10 00:58:53;;;;;;;26.48;12.63;;;7.50;99.90;;;;;;5246061;28;20078;-68
2023/01/10 01:01:24;;;;;;;25.55;11.40;;;7.40;99.90;;;;;;5246084;28;20543;-70
2023/01/10 01:03:55;;;;;;;25.92;10.23;;;7.70;99.90;;;;;;5245982;28;20036;-73
2023/01/10 01:06:26;;;;;;;27.92;14.77;;;7.80;99.90;;;;;;5246131;28;20033;-69
2023/01/10 01:08:57;;;;;;;28.55;10.75;;;7.90;99.90;;;;;;5249163;28;20033;-65
2023/01/10 01:11:28;;;;;;;21.00;11.00;;;7.80;99.90;;;;;;5265691;28;20040;-67
2023/01/10 01:13:59;;;;;;;20.35;10.60;;;7.90;99.90;;;;;;5249977;28;20456;-65
2023/01/10 01:16:29;;;;;;;25.48;11.45;;;8.00;99.90;;;;;;5249792;28;20029;-64
2023/01/10 01:19:00;;;;;;;29.48;20.95;;;8.00;99.90;;;;;;5249917;28;20074;-73
2023/01/10 01:21:31;;;;;;;18.35;11.35;;;8.00;99.90;;;;;;5248392;28;20029;-66
2023/01/10 01:24:02;;;;;;;24.33;12.30;;;8.10;99.90;;;;;;5249505;28;20040;-71
2023/01/10 01:26:34;;;;;;;22.58;11.80;;;8.00;99.90;;;;;;5249615;28;20032;-66
2023/01/10 01:29:05;;;;;;;21.88;11.02;;;7.90;99.90;;;;;;5249580;28;20034;-72
2023/01/10 01:31:35;;;;;;;28.65;15.85;;;7.90;99.90;;;;;;5249429;28;20464;-73
2023/01/10 01:34:06;;;;;;;23.85;15.07;;;8.00;99.90;;;;;;5249470;28;20472;-72
2023/01/10 01:36:37;;;;;;;20.98;11.10;;;7.90;99.90;;;;;;5249359;28;20017;-66
2023/01/10 01:39:08;;;;;;;27.75;15.77;;;8.00;99.90;;;;;;5249195;28;20040;-66
2023/01/10 01:41:57;;;;;;;26.48;21.77;;;8.10;99.90;;;;;;5249281;28;20036;-71
2023/01/10 01:44:34;;;;;;;24.35;11.48;;;7.90;99.90;;;;;;5249262;28;20029;-68
2023/01/10 01:47:21;;;;;;;24.58;10.55;;;8.00;99.90;;;;;;5249207;28;20028;-73
2023/01/10 01:49:53;;;;;;;40.95;37.30;;;8.20;99.90;;;;;;5249460;28;20101;-68
2023/01/10 01:52:33;;;;;;;21.42;11.25;;;8.10;99.90;;;;;;5249380;28;20028;-64
2023/01/10 01:55:05;;;;;;;20.13;9.97;;;8.20;99.90;;;;;;5249171;28;20037;-71
2023/01/10 01:57:37;;;;;;;22.67;14.55;;;8.30;99.90;;;;;;5249135;28;20023;-69
2023/01/10 02:00:09;;;;;;;55.17;50.45;;;8.20;99.90;;;;;;5248925;28;20098;-67
2023/01/10 02:02:52;;;;;;;22.00;9.82;;;8.30;99.90;;;;;;5248928;28;20036;-72
2023/01/10 02:05:23;;;;;;;21.55;12.15;;;8.10;99.90;;;;;;5248974;28;20031;-64
2023/01/10 02:07:56;;;;;;;22.63;11.80;;;8.10;99.90;;;;;;5248881;28;20025;-72
2023/01/10 02:11:11;;;;;;;19.10;10.30;;;8.20;99.90;;;;;;5248719;28;20803;-65
2023/01/10 02:13:45;;;;;;;34.22;12.27;;;8.20;99.90;;;;;;5225762;28;20021;-73
2023/01/10 02:16:16;;;;;;;27.17;11.30;;;8.20;99.90;;;;;;5245426;28;20037;-73
2023/01/10 02:18:46;;;;;;;31.73;15.70;;;8.20;99.90;;;;;;5248246;28;20024;-73
2023/01/10 02:21:34;;;;;;;23.02;10.25;;;8.10;99.90;;;;;;5248346;28;20029;-68
2023/01/10 02:24:24;;;;;;;27.00;20.77;;;8.30;99.90;;;;;;5249008;28;20036;-72
2023/01/10 02:26:58;;;;;;;43.58;39.78;;;8.30;99.90;;;;;;5248692;28;20040;-73
2023/01/10 02:30:06;;;;;;;26.17;10.25;;;8.20;99.90;;;;;;5248744;28;20398;-72
2023/01/10 02:32:47;;;;;;;23.27;10.32;;;8.10;99.90;;;;;;5248867;28;20471;-67
2023/01/10 02:35:58;;;;;;;30.50;24.05;;;8.10;99.90;;;;;;5248663;28;20109;-72
2023/01/10 02:39:01;;;;;;;24.95;11.57;;;8.20;99.90;;;;;;5244763;28;20093;-67
2023/01/10 02:41:40;;;;;;;43.60;39.70;;;8.30;99.90;;;;;;5263766;28;20040;-73
2023/01/10 02:44:20;;;;;;;25.70;11.82;;;8.20;99.90;;;;;;5248330;28;20051;-72
2023/01/10 02:46:51;;;;;;;21.60;11.50;;;8.30;99.90;;;;;;5248116;28;20350;-72
2023/01/10 02:49:22;;;;;;;27.73;9.90;;;8.40;99.90;;;;;;5248064;28;20040;-73
2023/01/10 02:51:54;;;;;;;45.42;41.40;;;8.30;99.90;;;;;;5247725;28;20029;-65
2023/01/10 02:54:29;;;;;;;23.25;11.60;;;8.30;99.90;;;;;;5247882;28;20055;-65
2023/01/10 02:57:09;;;;;;;24.77;10.98;;;8.30;99.90;;;;;;5247857;28;20476;-69
2023/01/10 03:00:05;;;;;;;23.85;12.73;;;8.30;99.90;;;;;;5247869;28;20103;-65
2023/01/10 03:02:52;;;;;;;27.67;19.25;;;8.30;99.90;;;;;;5248165;28;20079;-72
2023/01/10 03:05:29;;;;;;;21.13;11.68;;;8.50;99.90;;;;;;5247741;28;20479;-66
2023/01/10 03:08:08;;;;;;;37.40;34.10;;;8.30;99.90;;;;;;5247692;28;20032;-64
2023/01/10 03:11:11;;;;;;;31.52;15.20;;;8.40;99.90;;;;;;5247556;28;20033;-69
2023/01/10 03:13:56;;;;;;;22.27;11.82;;;8.30;99.90;;;;;;5235257;28;20040;-72
2023/01/10 03:16:29;;;;;;;32.60;25.58;;;8.30;99.90;;;;;;5247418;28;20379;-64
2023/01/10 03:19:09;;;;;;;25.33;11.32;;;8.20;99.90;;;;;;5247522;28;20063;-66
2023/01/10 03:21:43;;;;;;;19.20;13.77;;;8.30;99.90;;;;;;5247286;28;20056;-68
2023/01/10 03:24:23;;;;;;;25.23;12.68;;;8.30;99.90;;;;;;5247298;28;20033;-64
2023/01/10 03:26:59;;;;;;;;;;;8.20;99.90;;;;;;5247780;28;20017;-73
2023/01/10 03:30:08;;;;;;;23.27;13.98;;;8.30;99.90;;;;;;5247232;28;20301;-73
2023/01/10 03:32:40;;;;;;;25.67;18.63;;;8.20;99.90;;;;;;5245952;28;20151;-67
2023/01/10 03:35:13;;;;;;;20.08;10.43;;;8.30;99.90;;;;;;5247232;28;20453;-72
2023/01/10 03:37:56;;;;;;;24.88;10.70;;;8.30;99.90;;;;;;5247108;28;20024;-72
2023/01/10 03:40:42;;;;;;;22.42;11.20;;;8.30;99.90;;;;;;5247518;28;20044;-72
2023/01/10 03:46:25;;;;;;;20.55;10.40;;;8.20;99.90;;;;;;5247090;28;20027;-70
2023/01/10 03:48:58;;;;;;;24.10;16.95;;;8.20;99.90;;;;;;5247000;28;20052;-71
2023/01/10 03:51:30;;;;;;;22.05;12.02;;;8.20;99.90;;;;;;5246865;28;20025;-65
2023/01/10 03:54:02;;;;;;;33.33;29.33;;;8.30;99.90;;;;;;5246742;28;20033;-68
2023/01/10 03:56:44;;;;;;;24.25;13.13;;;8.20;99.90;;;;;;5245622;28;20028;-67
2023/01/10 03:59:22;;;;;;;26.70;14.82;;;8.30;99.90;;;;;;5246801;28;20025;-64
2023/01/10 04:01:54;;;;;;;21.13;13.85;;;8.10;99.90;;;;;;5246814;28;20113;-70
2023/01/10 04:04:25;;;;;;;23.98;11.70;;;8.20;99.90;;;;;;5245338;28;20040;-72
2023/01/10 04:06:56;;;;;;;19.55;11.07;;;8.10;99.90;;;;;;5246746;28;20050;-73
2023/01/10 04:09:27;;;;;;;22.35;10.00;;;8.20;99.90;;;;;;5246474;28;20032;-73
2023/01/10 04:11:57;;;;;;;22.30;11.55;;;8.20;99.90;;;;;;5246587;28;20025;-71
2023/01/10 04:14:31;;;;;;;25.33;11.65;;;8.10;99.90;;;;;;5246567;28;20078;-65
2023/01/10 04:17:03;;;;;;;23.95;11.73;;;8.30;99.90;;;;;;5246788;28;20122;-73
2023/01/10 04:19:34;;;;;;;31.63;28.13;;;8.30;99.90;;;;;;5246453;28;20029;-73
2023/01/10 04:22:05;;;;;;;31.48;14.40;;;8.30;99.90;;;;;;5246380;28;20044;-70
2023/01/10 04:24:36;;;;;;;26.67;11.68;;;8.20;99.90;;;;;;5246501;28;20024;-69
2023/01/10 04:27:07;;;;;;;20.00;10.38;;;8.40;99.90;;;;;;5246475;28;20024;-71
2023/01/10 04:29:37;;;;;;;26.08;13.82;;;8.50;99.90;;;;;;5246369;28;20027;-71
2023/01/10 04:32:08;;;;;;;23.65;11.23;;;8.20;99.90;;;;;;5246412;28;20174;-64
2023/01/10 04:34:39;;;;;;;25.23;18.55;;;8.30;99.90;;;;;;5246303;28;20526;-72
2023/01/10 04:37:10;;;;;;;23.63;10.88;;;8.40;99.90;;;;;;5246417;28;20035;-73
2023/01/10 04:39:41;;;;;;;35.47;31.77;;;8.30;99.90;;;;;;5245996;28;20048;-72
2023/01/10 04:42:12;;;;;;;27.73;15.30;;;8.50;99.90;;;;;;5262089;28;20037;-73
2023/01/10 04:44:43;;;;;;;22.90;13.10;;;8.20;99.90;;;;;;5250386;28;20110;-64
2023/01/10 04:47:14;;;;;;;19.13;10.20;;;8.30;99.90;;;;;;5250582;28;20472;-72
2023/01/10 04:49:45;;;;;;;23.02;9.88;;;8.50;99.90;;;;;;5250790;28;20031;-72
2023/01/10 04:52:16;;;;;;;170.63;159.35;;;8.20;99.90;;;;;;5250569;28;20029;-70
2023/01/10 04:54:47;;;;;;;28.42;15.20;;;8.10;99.90;;;;;;5250378;28;20026;-67
2023/01/10 04:57:17;;;;;;;26.38;11.98;;;8.20;99.90;;;;;;5250262;28;20033;-69
2023/01/10 04:59:48;;;;;;;29.92;13.52;;;8.10;99.90;;;;;;5250149;28;20044;-67
2023/01/10 05:02:19;;;;;;;25.00;13.07;;;7.90;99.90;;;;;;5250058;28;20032;-72
2023/01/10 05:04:50;;;;;;;25.42;13.52;;;8.00;99.90;;;;;;5250071;28;20023;-70
2023/01/10 05:07:21;;;;;;;25.48;12.55;;;8.00;99.90;;;;;;5250091;28;20436;-72
2023/01/10 05:09:52;;;;;;;25.30;11.35;;;7.90;99.90;;;;;;5249831;28;20052;-73
2023/01/10 05:12:22;;;;;;;21.60;10.43;;;7.80;99.90;;;;;;5248656;28;20041;-71
2023/01/10 05:14:53;;;;;;;20.05;10.10;;;8.10;99.90;;;;;;5265843;28;20038;-72
2023/01/10 05:17:24;;;;;;;23.90;10.00;;;8.20;99.90;;;;;;5249885;28;20028;-71
2023/01/10 05:19:55;;;;;;;18.75;9.75;;;8.10;99.90;;;;;;5249665;28;20104;-66
2023/01/10 05:22:26;;;;;;;19.13;9.15;;;8.20;99.90;;;;;;5265244;28;20539;-72
2023/01/10 05:24:57;;;;;;;61.83;56.50;;;8.30;99.90;;;;;;5249724;28;20372;-73
2023/01/10 05:27:28;;;;;;;19.05;9.55;;;8.30;99.90;;;;;;5249750;28;20050;-68
2023/01/10 05:29:59;;;;;;;17.58;9.85;;;8.30;99.90;;;;;;5249582;28;20431;-72
2023/01/10 05:32:29;;;;;;;20.05;9.95;;;8.50;99.90;;;;;;5249428;28;20021;-72
2023/01/10 05:35:00;;;;;;;21.00;10.30;;;8.50;99.90;;;;;;5249649;28;20439;-72
2023/01/10 05:37:31;;;;;;;24.08;11.02;;;8.30;99.90;;;;;;5249367;28;20411;-68
2023/01/10 05:40:03;;;;;;;21.33;11.90;;;8.50;99.90;;;;;;5249023;28;20480;-65
2023/01/10 05:42:34;;;;;;;21.15;10.88;;;8.30;99.90;;;;;;5249344;28;20028;-65
2023/01/10 05:45:05;;;;;;;22.67;10.40;;;8.30;99.90;;;;;;5249391;28;20028;-72
2023/01/10 05:47:36;;;;;;;17.13;9.98;;;8.40;99.90;;;;;;5249187;28;20032;-67
2023/01/10 05:50:08;;;;;;;19.58;10.65;;;8.40;99.90;;;;;;5248014;28;20032;-72
2023/01/10 05:52:39;;;;;;;23.13;20.48;;;8.40;99.90;;;;;;5249234;28;20594;-67
2023/01/10 05:55:10;;;;;;;20.88;10.82;;;8.30;99.90;;;;;;5247928;28;20099;-71
2023/01/10 05:57:41;;;;;;;21.52;10.40;;;8.40;99.90;;;;;;5249433;28;20112;-72
2023/01/10 06:00:12;;;;;;;20.98;9.15;;;8.40;99.90;;;;;;5249661;28;20082;-72
2023/01/10 06:02:43;;;;;;;21.48;11.07;;;8.60;99.90;;;;;;5249149;28;20230;-68
2023/01/10 06:05:14;;;;;;;20.02;9.73;;;8.50;99.90;;;;;;5249000;28;20121;-66
2023/01/10 06:07:45;;;;;;;20.05;10.50;;;8.50;99.90;;;;;;5248827;28;20028;-69
2023/01/10 06:10:16;;;;;;;21.17;10.82;;;8.80;99.90;;;;;;5248983;28;20034;-72
2023/01/10 06:12:48;;;;;;;160.85;150.35;;;9.00;99.90;;;;;;5248957;28;20124;-74
2023/01/10 06:15:19;;;;;;;17.70;13.00;;;9.00;99.90;;;;;;5248826;28;20059;-71
2023/01/10 06:17:50;;;;;;;18.70;10.00;;;9.10;99.90;;;;;;5248607;28;20037;-71
2023/01/10 06:20:21;;;;;;;29.52;26.50;;;9.00;99.90;;;;;;5248601;28;20016;-72
2023/01/10 06:22:52;;;;;;;19.92;12.68;;;9.30;99.90;;;;;;5248506;28;20040;-73
2023/01/10 06:25:23;;;;;;;16.92;9.85;;;9.30;99.90;;;;;;5248450;28;20025;-68
2023/01/10 06:27:54;;;;;;;19.88;11.27;;;9.30;99.90;;;;;;5248404;28;20037;-70
2023/01/10 06:30:24;;;;;;;17.92;10.93;;;9.30;99.90;;;;;;5248435;28;20059;-65
2023/01/10 06:33:01;;;;;;;34.75;15.95;;;9.20;99.90;;;;;;5248216;28;20033;-70
2023/01/10 06:35:32;;;;;;;46.17;24.77;;;9.20;99.90;;;;;;5248301;28;20376;-72
2023/01/10 06:38:03;;;;;;;28.02;13.20;;;9.40;99.90;;;;;;5248169;28;20036;-65
2023/01/10 06:40:34;;;;;;;19.02;9.52;;;9.40;99.90;;;;;;5248014;28;20396;-68
2023/01/10 06:43:05;;;;;;;23.95;14.05;;;9.50;99.90;;;;;;5247930;28;20044;-67
2023/01/10 06:45:36;;;;;;;31.10;18.60;;;9.60;99.90;;;;;;5248070;28;20108;-64
2023/01/10 06:48:06;;;;;;;18.85;9.82;;;9.60;99.90;;;;;;5247956;28;20033;-68
2023/01/10 06:50:37;;;;;;;21.08;10.45;;;9.70;99.90;;;;;;5247945;28;20021;-70
2023/01/10 06:53:08;;;;;;;17.52;11.25;;;9.60;99.90;;;;;;5247866;28;20032;-74
2023/01/10 06:55:39;;;;;;;20.23;9.57;;;9.90;99.90;;;;;;5247964;28;20024;-66
2023/01/10 06:58:10;;;;;;;21.02;11.38;;;10.00;99.90;;;;;;5247913;28;20033;-72
2023/01/10 07:00:41;;;;;;;16.40;8.75;;;10.00;99.90;;;;;;5247901;28;20032;-72
2023/01/10 07:03:11;;;;;;;61.85;57.10;;;10.20;99.90;;;;;;5247547;28;20040;-73
2023/01/10 07:05:42;;;;;;;17.00;9.30;;;10.50;99.90;;;;;;5247481;28;20024;-73
2023/01/10 07:08:13;;;;;;;19.67;11.60;;;10.70;99.90;;;;;;5246754;28;20028;-71
2023/01/10 07:10:44;;;;;;;16.63;11.40;;;10.80;99.90;;;;;;5247873;28;20040;-72
2023/01/10 07:13:15;;;;;;;18.45;12.98;;;11.00;99.90;;;;;;5247392;28;20016;-73
2023/01/10 07:15:46;;;;;;;18.63;9.93;;;11.10;99.90;;;;;;5247639;28;20059;-74
2023/01/10 07:18:16;;;;;;;264.55;248.13;;;11.20;99.90;;;;;;5247415;28;20028;-75
2023/01/10 07:20:47;;;;;;;34.58;31.33;;;11.10;99.90;;;;;;5247437;28;20029;-73
2023/01/10 07:23:18;;;;;;;18.08;10.70;;;11.20;99.90;;;;;;5247252;28;20040;-68
2023/01/10 07:25:49;;;;;;;15.40;8.43;;;11.20;99.90;;;;;;5247496;28;20059;-71
2023/01/10 07:28:20;;;;;;;18.88;11.05;;;11.20;99.90;;;;;;5247295;28;20029;-65
2023/01/10 07:30:50;;;;;;;17.73;8.82;;;11.20;99.90;;;;;;5247205;28;20428;-64
2023/01/10 07:33:21;;;;;;;18.40;16.40;;;11.20;99.90;;;;;;5247122;28;20028;-75
2023/01/10 07:35:52;;;;;;;17.13;10.90;;;11.20;99.90;;;;;;5247224;28;20023;-73
2023/01/10 07:38:23;;;;;;;15.73;10.18;;;11.20;99.90;;;;;;5246855;28;20036;-65
2023/01/10 07:40:54;;;;;;;23.75;21.58;;;11.30;99.90;;;;;;5247082;28;20028;-76
2023/01/10 07:43:26;;;;;;;26.30;23.63;;;11.40;99.90;;;;;;5246865;28;20435;-75
2023/01/10 07:46:02;;;;;;;15.93;8.95;;;11.30;99.90;;;;;;5247112;28;20024;-70
2023/01/10 07:48:33;;;;;;;13.80;8.65;;;11.40;99.90;;;;;;5246972;28;20038;-68
2023/01/10 07:51:04;;;;;;;14.00;9.95;;;11.40;99.90;;;;;;5247046;28;20020;-73
2023/01/10 07:53:35;;;;;;;13.75;8.57;;;11.40;99.90;;;;;;5246861;28;20024;-75
2023/01/10 07:56:06;;;;;;;26.50;10.90;;;11.50;99.90;;;;;;5246877;28;20039;-75
2023/01/10 07:58:37;;;;;;;26.63;23.90;;;11.60;99.90;;;;;;5246953;28;20038;-70
2023/01/10 08:01:08;;;;;;;46.83;43.22;;;11.60;99.90;;;;;;5246904;28;20102;-66
2023/01/10 08:03:39;;;;;;;15.73;9.23;;;11.60;99.90;;;;;;5246750;28;20110;-71
2023/01/10 08:06:10;;;;;;;17.13;13.88;;;11.60;99.90;;;;;;5246843;28;20029;-68
2023/01/10 08:08:41;;;;;;;34.22;31.25;;;11.70;99.90;;;;;;5246731;28;20020;-74
2023/01/10 08:11:12;;;;;;;13.98;8.65;;;11.70;99.90;;;;;;5246831;28;20028;-74
2023/01/10 08:13:42;;;;;;;24.63;22.58;;;11.80;99.90;;;;;;5262291;28;20032;-70
2023/01/10 08:16:14;;;;;;;48.60;45.03;;;12.00;99.90;;;;;;5246692;28;20031;-74
2023/01/10 08:18:45;;;;;;;12.77;9.30;;;12.10;99.90;;;;;;5246399;28;20024;-75
2023/01/10 08:21:16;;;;;;;24.33;22.00;;;12.20;99.90;;;;;;5246546;28;20036;-74
2023/01/10 08:23:46;;;;;;;22.80;13.38;;;12.10;99.90;;;;;;5246595;28;20029;-75
2023/01/10 08:26:18;;;;;;;60.80;56.20;;;12.10;99.90;;;;;;5246444;28;20036;-72
2023/01/10 08:28:49;;;;;;;13.63;8.68;;;12.20;99.90;;;;;;5246541;28;20024;-66
2023/01/10 08:31:19;;;;;;;13.75;8.68;;;12.20;99.90;;;;;;5246624;28;20029;-75
2023/01/10 08:33:50;;;;;;;79.80;74.57;;;12.30;99.90;;;;;;5246791;28;20023;-74
2023/01/10 08:36:21;;;;;;;47.60;44.25;;;12.50;99.90;;;;;;5246460;28;20025;-74
2023/01/10 08:38:54;;;;;;;18.63;10.05;;;12.60;99.90;;;;;;5246153;28;20519;-73
2023/01/10 08:41:25;;;;;;;23.02;21.15;;;12.90;99.90;;;;;;5246495;28;20056;-73
2023/01/10 08:43:56;;;;;;;14.13;12.43;;;13.10;99.90;;;;;;5246366;28;20067;-72
2023/01/10 08:46:27;;;;;;;14.63;8.68;;;13.30;99.90;;;;;;5246274;28;20020;-72
2023/01/10 08:48:58;;;;;;;15.85;9.68;;;13.50;99.90;;;;;;5246294;28;20100;-66
2023/01/10 08:51:29;;;;;;;19.48;11.20;;;13.50;99.90;;;;;;5246167;28;20024;-74
2023/01/10 08:54:00;;;;;;;12.15;9.80;;;13.70;99.90;;;;;;5246252;28;20099;-74
2023/01/10 08:56:31;;;;;;;14.57;9.45;;;14.00;99.90;;;;;;5246289;28;20357;-73
2023/01/10 08:59:02;;;;;;;40.97;37.78;;;14.10;99.90;;;;;;5246239;28;20029;-68
2023/01/10 09:01:33;;;;;;;44.30;41.45;;;14.20;99.90;;;;;;5246167;28;20046;-71
2023/01/10 09:04:04;;;;;;;47.78;44.30;;;14.10;99.90;;;;;;5246010;28;20388;-66
2023/01/10 09:06:35;;;;;;;17.33;14.70;;;14.10;99.70;;;;;;5246140;28;20028;-73
2023/01/10 09:09:06;;;;;;;73.38;68.32;;;14.10;99.70;;;;;;5246023;28;20024;-70
2023/01/10 09:11:37;;;;;;;15.00;13.15;;;14.20;99.60;;;;;;5245991;28;20031;-68
2023/01/10 09:14:08;;;;;;;17.85;9.48;;;14.30;99.20;;;;;;5244811;28;20056;-64
2023/01/10 09:16:39;;;;;;;12.10;10.88;;;14.60;97.30;;;;;;5246124;28;20484;-73
2023/01/10 09:19:11;;;;;;;12.13;8.27;;;14.70;98.70;;;;;;5246362;28;20019;-73
2023/01/10 09:21:41;;;;;;;15.93;14.27;;;14.80;96.80;;;;;;5246145;28;20039;-66
2023/01/10 09:24:12;;;;;;;12.10;9.70;;;14.90;94.00;;;;;;5245954;28;20037;-74
2023/01/10 09:26:43;;;;;;;14.18;11.98;;;15.10;95.20;;;;;;5246424;28;20025;-72
2023/01/10 09:29:14;;;;;;;44.78;41.63;;;14.90;92.90;;;;;;5248258;28;20027;-71
2023/01/10 09:31:45;;;;;;;105.80;99.15;;;14.70;93.10;;;;;;5249548;28;20020;-74
2023/01/10 09:34:16;;;;;;;126.07;118.57;;;14.70;93.00;;;;;;5249527;28;20063;-75
2023/01/10 09:36:47;;;;;;;53.05;49.47;;;14.90;91.60;;;;;;5249560;28;20048;-73
2023/01/10 09:39:18;;;;;;;27.98;25.60;;;15.20;91.60;;;;;;5249475;28;20123;-68
2023/01/10 09:42:16;;;;;;;10.85;7.30;;;15.20;90.70;;;;;;5249522;28;20120;-65
2023/01/10 09:44:46;;;;;;;28.02;25.90;;;15.20;90.70;;;;;;5249532;28;20036;-73
2023/01/10 09:47:28;;;;;;;12.45;7.90;;;15.50;89.70;;;;;;5249430;28;20031;-74
2023/01/10 09:50:21;;;;;;;10.55;7.50;;;15.30;89.60;;;;;;5249249;28;20035;-69
2023/01/10 09:53:09;;;;;;;14.32;12.43;;;15.00;90.10;;;;;;5249546;28;20078;-66
2023/01/10 09:55:41;;;;;;;63.58;59.65;;;15.00;90.50;;;;;;5249483;28;20578;-72
2023/01/10 09:58:16;;;;;;;16.42;15.02;;;15.20;89.40;;;;;;5249346;28;20369;-68
2023/01/10 10:01:09;;;;;;;17.23;15.80;;;15.20;89.80;;;;;;5249302;28;20021;-73
2023/01/10 10:04:11;;;;;;;80.82;75.88;;;15.60;90.10;;;;;;5249258;28;20035;-74
2023/01/10 10:06:42;;;;;;;9.77;7.38;;;15.70;89.20;;;;;;5249166;28;20090;-74
2023/01/10 10:09:16;;;;;;;10.82;9.73;;;15.70;88.80;;;;;;5249163;28;20051;-69
2023/01/10 10:12:08;;;;;;;11.52;9.23;;;15.80;88.30;;;;;;5249007;28;20037;-72
2023/01/10 10:14:59;;;;;;;23.35;21.67;;;15.50;87.00;;;;;;5248989;28;20020;-68
2023/01/10 10:17:38;;;;;;;39.17;36.58;;;15.30;88.00;;;;;;5249011;28;20029;-73
2023/01/10 10:20:56;;;;;;;404.20;377.80;;;15.30;88.80;;;;;;5248869;28;20016;-74
2023/01/10 10:23:33;;;;;;;13.20;11.85;;;15.10;88.40;;;;;;5248512;28;20037;-67
2023/01/10 10:26:25;;;;;;;79.28;74.55;;;15.40;88.70;;;;;;5248536;28;20372;-73
2023/01/10 10:29:11;;;;;;;68.53;63.97;;;15.60;87.30;;;;;;5248502;28;20031;-72
2023/01/10 10:32:01;;;;;;;18.23;16.45;;;15.70;86.80;;;;;;5248358;28;20021;-66
2023/01/10 10:35:01;;;;;;;9.60;8.70;;;15.90;87.10;;;;;;5248387;28;20032;-67
2023/01/10 10:37:47;;;;;;;10.52;6.65;;;16.10;88.20;;;;;;5248541;28;20384;-69
2023/01/10 10:40:21;;;;;;;47.55;44.28;;;16.00;87.40;;;;;;5247846;28;20514;-71
2023/01/10 10:42:55;;;;;;;9.30;7.57;;;15.90;87.70;;;;;;5248318;28;20357;-67
2023/01/10 10:45:40;;;;;;;91.50;85.53;;;16.20;87.90;;;;;;5248240;28;20029;-73
2023/01/10 10:48:11;;;;;;;12.77;10.88;;;16.30;85.30;;;;;;5248210;28;20031;-74
2023/01/10 10:50:51;;;;;;;11.07;8.32;;;16.30;85.30;;;;;;5248156;28;20021;-75
2023/01/10 10:53:22;;;;;;;39.33;36.33;;;16.10;85.30;;;;;;5248102;28;20024;-74
2023/01/10 10:55:53;;;;;;;38.67;35.83;;;16.00;85.20;;;;;;5247920;28;20558;-68
2023/01/10 10:58:24;;;;;;;10.07;7.53;;;16.40;85.00;;;;;;5247920;28;20033;-65
2023/01/10 11:00:56;;;;;;;18.73;16.92;;;16.60;83.80;;;;;;5246587;28;20491;-73
2023/01/10 11:03:34;;;;;;;9.23;7.47;;;15.80;85.40;;;;;;5247652;28;20028;-74
2023/01/10 11:06:07;;;;;;;8.65;6.90;;;15.70;86.10;;;;;;5247741;28;20021;-67
2023/01/10 11:08:42;;;;;;;16.63;15.05;;;15.60;87.00;;;;;;5247635;28;20033;-71
2023/01/10 11:11:29;;;;;;;51.53;48.22;;;15.60;86.80;;;;;;5247737;28;20029;-65
2023/01/10 11:14:06;;;;;;;33.42;30.98;;;16.10;85.70;;;;;;5247700;28;20433;-74
2023/01/10 11:16:39;;;;;;;11.13;9.20;;;16.60;84.20;;;;;;5247494;28;20028;-71
2023/01/10 11:19:20;;;;;;;10.48;9.50;;;16.80;84.20;;;;;;5247584;28;20364;-74
2023/01/10 11:21:51;;;;;;;10.80;8.85;;;16.80;83.30;;;;;;5247439;28;20035;-72
2023/01/10 11:24:35;;;;;;;44.95;41.85;;;16.60;83.00;;;;;;5247454;28;20041;-65
2023/01/10 11:27:19;;;;;;;8.20;6.22;;;16.10;84.70;;;;;;5247553;28;20055;-73
2023/01/10 11:30:01;;;;;;;11.88;9.35;;;15.80;85.90;;;;;;5247699;28;20100;-74
2023/01/10 11:32:34;;;;;;;10.98;8.80;;;15.60;86.50;;;;;;5247463;28;20055;-65
2023/01/10 11:35:20;;;;;;;22.80;21.10;;;15.50;86.40;;;;;;5247290;28;20066;-72
2023/01/10 11:37:59;;;;;;;24.63;22.75;;;15.40;86.80;;;;;;5247141;28;20222;-73
2023/01/10 11:40:31;;;;;;;13.73;12.45;;;15.30;87.00;;;;;;5247056;28;20102;-65
2023/01/10 11:43:24;;;;;;;13.55;6.45;;;15.40;86.10;;;;;;5247214;28;20067;-72
2023/01/10 11:46:11;;;;;;;14.00;12.80;;;15.40;86.20;;;;;;5247383;28;20032;-74
2023/01/10 11:48:48;;;;;;;10.52;9.63;;;15.40;86.70;;;;;;5247467;28;20467;-74
2023/01/10 11:51:25;;;;;;;106.53;99.55;;;15.40;87.00;;;;;;5246871;28;20025;-75
2023/01/10 11:54:01;;;;;;;10.57;5.55;;;15.40;86.40;;;;;;5247028;28;20047;-75
2023/01/10 11:56:35;;;;;;;7.72;6.43;;;15.50;86.40;;;;;;5246861;28;20025;-73
2023/01/10 11:59:11;;;;;;;11.77;10.27;;;15.50;86.10;;;;;;5247232;28;20021;-73
2023/01/10 12:01:52;;;;;;;11.07;6.75;;;15.60;86.40;;;;;;5246910;28;20021;-75
2023/01/10 12:04:26;;;;;;;25.10;23.05;;;15.50;86.10;;;;;;5246830;28;20036;-75
2023/01/10 12:07:01;;;;;;;10.82;6.60;;;15.40;86.00;;;;;;5246832;28;20016;-75
2023/01/10 12:09:44;;;;;;;13.75;11.75;;;15.40;86.40;;;;;;5246828;28;20730;-74
2023/01/10 12:12:22;;;;;;;11.15;6.53;;;15.20;89.40;;;;;;5246730;28;20040;-69
2023/01/10 12:14:55;;;;;;;9.65;7.20;;;14.90;93.60;;;;;;5246950;28;20028;-64
2023/01/10 12:17:27;;;;;;;12.35;6.88;;;15.00;91.90;;;;;;5246785;28;20452;-71
2023/01/10 12:20:01;;;;;;;10.63;6.53;;;14.90;91.00;;;;;;5246595;28;20035;-75
2023/01/10 12:22:38;;;;;;;9.57;6.25;;;15.00;91.80;;;;;;5246665;28;20028;-75
2023/01/10 12:25:20;;;;;;;11.95;6.63;;;15.10;90.20;;;;;;5246694;28;20052;-73
2023/01/10 12:27:55;;;;;;;12.35;11.20;;;15.00;91.10;;;;;;5246680;28;20120;-66
2023/01/10 12:30:37;;;;;;;8.55;5.90;;;15.10;90.00;;;;;;5246687;28;20094;-76
2023/01/10 12:33:36;;;;;;;38.20;35.65;;;15.10;89.90;;;;;;5246728;28;20468;-73
2023/01/10 12:36:38;;;;;;;65.75;61.63;;;15.10;90.30;;;;;;5246049;28;20036;-65
2023/01/10 12:39:34;;;;;;;44.33;41.35;;;14.90;91.30;;;;;;5244822;28;20052;-75
2023/01/10 12:45:06;;;;;;;10.25;8.15;;;14.90;91.60;;;;;;5246807;28;20403;-68
2023/01/10 12:48:05;;;;;;;12.15;6.55;;;14.90;92.40;;;;;;5246515;28;20029;-69
2023/01/10 12:50:40;;;;;;;11.82;7.47;;;14.90;93.40;;;;;;5228174;28;20549;-75
2023/01/10 12:53:30;;;;;;;8.68;6.43;;;14.90;92.80;;;;;;5246587;28;20078;-75
2023/01/10 12:56:06;;;;;;;10.00;6.40;;;14.80;92.90;;;;;;5246891;28;20020;-70
2023/01/10 12:58:41;;;;;;;30.42;28.08;;;14.70;94.60;;;;;;5247053;28;20024;-76
2023/01/10 13:01:39;;;;;;;11.15;7.95;;;14.60;95.00;;;;;;5246526;28;20016;-75
2023/01/10 13:04:19;;;;;;;11.68;6.55;;;14.70;94.80;;;;;;5246745;28;20064;-75
2023/01/10 13:06:52;;;;;;;11.90;6.35;;;14.70;94.40;;;;;;5250192;28;20034;-74
2023/01/10 13:09:29;;;;;;;10.85;6.72;;;14.70;95.00;;;;;;5250038;28;20427;-65
2023/01/10 13:12:15;;;;;;;8.00;6.60;;;14.70;95.00;;;;;;5250207;28;20551;-74
2023/01/10 13:15:14;;;;;;;9.38;6.00;;;14.70;93.50;;;;;;5250150;28;20056;-75
2023/01/10 13:17:50;;;;;;;11.43;6.63;;;14.70;93.10;;;;;;5245851;28;20063;-68
2023/01/10 13:20:20;;;;;;;9.07;5.68;;;14.80;91.60;;;;;;5249857;28;20051;-74
2023/01/10 13:22:54;;;;;;;13.57;7.40;;;14.80;92.20;;;;;;5249749;28;20037;-76
2023/01/10 13:25:34;;;;;;;9.98;5.90;;;14.70;94.40;;;;;;5249695;28;20028;-72
2023/01/10 13:28:22;;;;;;;15.73;9.85;;;14.60;96.30;;;;;;5249801;28;20033;-69